createdAt,value
2022-10-22T00:01:00.002Z,14.48
2022-10-22T00:03:27.958Z,9.20
2022-10-22T00:05:55.816Z,12.45
2022-10-22T00:08:25.168Z,8.07
2022-10-22T00:10:53.600Z,10.03
2022-10-22T00:13:21.892Z,8.75
2022-10-22T00:15:49.952Z,13.30
2022-10-22T00:18:17.816Z,9.23
2022-10-22T00:20:45.596Z,9.73
2022-10-22T00:23:13.421Z,10.10
2022-10-22T00:25:42.785Z,9.32
2022-10-22T00:28:11.547Z,8.50
2022-10-22T00:30:39.403Z,8.95
2022-10-22T00:33:07.273Z,14.35
2022-10-22T00:35:35.139Z,9.60
2022-10-22T00:38:03.115Z,10.00
2022-10-22T00:40:31.600Z,8.75
2022-10-22T00:43:00.738Z,11.65
2022-10-22T00:45:29.297Z,9.73
2022-10-22T00:48:01.039Z,9.45
2022-10-22T00:50:32.769Z,10.23
2022-10-22T00:53:02.503Z,9.65
2022-10-22T00:55:31.688Z,10.05
2022-10-22T00:58:02.539Z,9.07
2022-10-22T01:00:30.693Z,10.65
2022-10-22T01:02:59.469Z,9.65
2022-10-22T01:05:29.164Z,9.27
2022-10-22T01:07:57.549Z,9.93
2022-10-22T01:10:47.284Z,10.02
2022-10-22T01:13:30.641Z,9.77
2022-10-22T01:16:09.527Z,10.95
2022-10-22T01:18:45.699Z,10.40
2022-10-22T01:21:24.495Z,12.38
2022-10-22T01:24:13.512Z,12.57
2022-10-22T01:26:58.221Z,9.63
2022-10-22T01:29:31.029Z,8.48
2022-10-22T01:32:03.602Z,11.05
2022-10-22T01:34:33.321Z,7.75
2022-10-22T01:37:01.383Z,8.73
2022-10-22T01:39:32.071Z,10.75
2022-10-22T01:42:00.322Z,10.88
2022-10-22T01:44:31.230Z,9.98
2022-10-22T01:47:09.037Z,10.80
2022-10-22T01:49:54.903Z,9.23
2022-10-22T01:52:36.670Z,8.55
2022-10-22T01:55:17.593Z,13.45
2022-10-22T01:57:54.593Z,8.05
2022-10-22T02:00:24.634Z,9.32
2022-10-22T02:02:59.975Z,9.30
2022-10-22T02:05:34.038Z,9.15
2022-10-22T02:08:06.739Z,51.33
2022-10-22T02:10:35.251Z,58.85
2022-10-22T02:13:06.006Z,14.55
2022-10-22T02:15:38.480Z,15.00
2022-10-22T02:18:10.429Z,12.65
2022-10-22T02:20:42.752Z,13.45
2022-10-22T02:23:11.460Z,10.60
2022-10-22T02:25:43.256Z,10.45
2022-10-22T02:28:18.439Z,9.63
2022-10-22T02:30:53.911Z,10.43
2022-10-22T02:33:25.640Z,8.63
2022-10-22T02:35:54.238Z,10.65
2022-10-22T02:38:23.878Z,9.52
2022-10-22T02:40:51.801Z,10.45
2022-10-22T02:43:20.258Z,11.77
2022-10-22T02:45:49.562Z,9.82
2022-10-22T02:48:17.468Z,12.45
2022-10-22T02:50:45.418Z,8.70
2022-10-22T02:53:13.222Z,8.70
2022-10-22T02:55:41.736Z,8.70
2022-10-22T02:58:09.502Z,10.15
2022-10-22T03:00:37.364Z,8.30
2022-10-22T03:03:06.620Z,8.23
2022-10-22T03:05:34.492Z,8.15
2022-10-22T03:08:02.392Z,9.90
2022-10-22T03:10:30.330Z,8.13
2022-10-22T03:12:58.109Z,10.45
2022-10-22T03:17:58.779Z,7.40
2022-10-22T03:20:28.565Z,9.30
2022-10-22T03:22:57.716Z,7.57
2022-10-22T03:25:28.443Z,8.85
2022-10-22T03:28:00.858Z,8.05
2022-10-22T03:30:28.779Z,11.90
2022-10-22T03:32:56.603Z,8.30
2022-10-22T03:35:24.881Z,9.98
2022-10-22T03:37:54.881Z,13.90
2022-10-22T03:40:22.862Z,12.13
2022-10-22T03:42:50.738Z,15.63
2022-10-22T03:45:18.747Z,16.48
2022-10-22T03:47:46.613Z,14.00
2022-10-22T03:50:14.570Z,15.18
2022-10-22T03:52:42.396Z,11.85
2022-10-22T03:55:11.784Z,11.57
2022-10-22T03:57:39.993Z,14.07
2022-10-22T04:00:09.936Z,15.73
2022-10-22T04:02:39.185Z,10.27
2022-10-22T04:05:08.010Z,10.57
2022-10-22T04:07:35.882Z,11.50
2022-10-22T04:10:03.708Z,15.00
2022-10-22T04:12:32.908Z,12.10
2022-10-22T04:15:00.702Z,10.60
2022-10-22T04:17:34.620Z,10.98
2022-10-22T04:20:02.733Z,10.18
2022-10-22T04:22:30.598Z,10.38
2022-10-22T04:24:58.510Z,10.63
2022-10-22T04:27:26.376Z,12.90
2022-10-22T04:29:55.769Z,10.82
2022-10-22T04:32:23.631Z,44.23
2022-10-22T04:34:51.526Z,12.55
2022-10-22T04:37:19.435Z,10.13
2022-10-22T04:39:47.324Z,11.45
2022-10-22T04:42:15.369Z,12.43
2022-10-22T04:44:43.200Z,12.93
2022-10-22T04:47:12.459Z,16.30
2022-10-22T04:49:41.096Z,12.32
2022-10-22T04:52:08.987Z,12.45
2022-10-22T04:54:36.769Z,24.92
2022-10-22T04:57:04.770Z,14.57
2022-10-22T04:59:32.683Z,11.73
2022-10-22T05:02:00.540Z,11.57
2022-10-22T05:04:29.760Z,11.38
2022-10-22T05:06:57.711Z,12.23
2022-10-22T05:09:25.629Z,12.68
2022-10-22T05:11:54.231Z,13.60
2022-10-22T05:14:23.932Z,13.75
2022-10-22T05:16:52.787Z,13.00
2022-10-22T05:19:24.355Z,13.50
2022-10-22T05:21:54.583Z,12.73
2022-10-22T05:24:22.867Z,12.93
2022-10-22T05:26:51.499Z,16.35
2022-10-22T05:29:19.943Z,16.42
2022-10-22T05:31:48.189Z,13.55
2022-10-22T05:34:16.833Z,14.88
2022-10-22T05:36:44.932Z,12.63
2022-10-22T05:39:14.465Z,11.57
2022-10-22T05:41:42.339Z,11.32
2022-10-22T05:44:13.393Z,13.52
2022-10-22T05:46:43.205Z,13.13
2022-10-22T05:49:14.902Z,13.45
2022-10-22T05:51:42.840Z,12.57
2022-10-22T05:54:16.704Z,13.63
2022-10-22T05:56:46.244Z,14.57
2022-10-22T05:59:14.082Z,13.50
2022-10-22T06:01:42.429Z,12.90
2022-10-22T06:04:12.847Z,14.20
2022-10-22T06:06:43.832Z,13.85
2022-10-22T06:09:16.899Z,14.43
2022-10-22T06:11:46.618Z,13.95
2022-10-22T06:14:15.519Z,14.65
2022-10-22T06:16:43.484Z,21.80
2022-10-22T06:19:16.613Z,16.00
2022-10-22T06:21:45.567Z,14.55
2022-10-22T06:24:13.780Z,14.75
2022-10-22T06:26:42.513Z,13.90
2022-10-22T06:29:12.170Z,14.95
2022-10-22T06:31:40.020Z,13.50
2022-10-22T06:34:09.740Z,15.15
2022-10-22T06:36:38.051Z,14.80
2022-10-22T06:39:06.755Z,16.17
2022-10-22T06:41:34.697Z,15.15
2022-10-22T06:44:02.566Z,14.90
2022-10-22T06:46:32.261Z,13.88
2022-10-22T06:49:02.461Z,16.73
2022-10-22T06:51:30.761Z,15.40
2022-10-22T06:53:59.298Z,14.88
2022-10-22T06:56:28.950Z,16.40
2022-10-22T06:58:58.311Z,15.35
2022-10-22T07:01:28.152Z,18.67
2022-10-22T07:03:57.482Z,15.10
2022-10-22T07:06:26.368Z,15.83
2022-10-22T07:08:55.207Z,14.93
2022-10-22T07:11:24.656Z,12.68
2022-10-22T07:13:54.994Z,13.73
2022-10-22T07:16:25.727Z,14.60
2022-10-22T07:18:57.441Z,15.57
2022-10-22T07:21:26.124Z,15.88
2022-10-22T07:23:54.115Z,14.52
2022-10-22T07:26:22.383Z,15.05
2022-10-22T07:28:50.243Z,12.77
2022-10-22T07:31:19.106Z,14.98
2022-10-22T07:33:47.231Z,14.88
2022-10-22T07:36:18.462Z,16.00
2022-10-22T07:38:47.112Z,14.23
2022-10-22T07:41:15.643Z,14.82
2022-10-22T07:43:44.078Z,13.05
2022-10-22T07:46:12.606Z,14.35
2022-10-22T07:48:40.511Z,15.05
2022-10-22T07:51:09.246Z,15.13
2022-10-22T07:53:38.480Z,19.00
2022-10-22T07:56:06.632Z,16.63
2022-10-22T07:58:34.572Z,17.75
2022-10-22T08:01:05.603Z,15.35
2022-10-22T08:03:33.976Z,15.52
2022-10-22T08:06:02.626Z,17.60
2022-10-22T08:08:31.234Z,17.75
2022-10-22T08:11:02.337Z,18.08
2022-10-22T08:13:31.541Z,16.65
2022-10-22T08:15:59.898Z,16.65
2022-10-22T08:18:27.858Z,16.42
2022-10-22T08:20:56.244Z,15.02
2022-10-22T08:23:26.127Z,14.40
2022-10-22T08:25:57.071Z,14.02
2022-10-22T08:28:28.526Z,13.27
2022-10-22T08:30:56.522Z,13.95
2022-10-22T08:33:24.443Z,13.50
2022-10-22T08:35:53.427Z,12.27
2022-10-22T08:38:21.562Z,11.07
2022-10-22T08:40:52.757Z,11.40
2022-10-22T08:43:38.873Z,10.75
2022-10-22T08:46:18.453Z,11.90
2022-10-22T08:48:49.594Z,11.80
2022-10-22T08:51:19.527Z,10.48
2022-10-22T08:54:06.636Z,10.65
2022-10-22T08:56:37.571Z,10.13
2022-10-22T08:59:13.736Z,8.63
2022-10-22T09:01:46.975Z,8.20
2022-10-22T09:04:25.511Z,12.65
2022-10-22T09:06:54.971Z,8.25
2022-10-22T09:09:27.039Z,12.80
2022-10-22T09:11:58.639Z,7.70
2022-10-22T09:14:29.886Z,6.70
2022-10-22T09:17:15.180Z,6.68
2022-10-22T09:19:54.365Z,6.80
2022-10-22T09:22:30.872Z,5.22
2022-10-22T09:25:03.763Z,6.13
2022-10-22T09:27:32.951Z,6.55
2022-10-22T09:30:03.064Z,5.60
2022-10-22T09:32:30.958Z,6.75
2022-10-22T09:34:59.717Z,6.28
2022-10-22T09:37:30.311Z,7.65
2022-10-22T09:39:59.947Z,7.43
2022-10-22T09:42:27.996Z,6.30
2022-10-22T09:44:58.678Z,6.10
2022-10-22T09:47:43.261Z,9.82
2022-10-22T09:50:28.570Z,10.90
2022-10-22T09:53:00.557Z,5.05
2022-10-22T09:55:28.500Z,5.13
2022-10-22T09:57:57.478Z,5.28
2022-10-22T10:00:26.260Z,5.88
2022-10-22T10:03:00.840Z,5.88
2022-10-22T10:05:32.553Z,8.88
2022-10-22T10:08:03.147Z,5.43
2022-10-22T10:10:42.932Z,5.65
2022-10-22T10:13:26.654Z,7.20
2022-10-22T10:16:00.134Z,6.80
2022-10-22T10:18:38.877Z,5.25
2022-10-22T10:21:17.131Z,7.72
2022-10-22T10:23:54.192Z,7.30
2022-10-22T10:26:28.865Z,6.43
2022-10-22T10:29:06.497Z,5.88
2022-10-22T10:31:44.771Z,7.90
2022-10-22T10:34:24.222Z,6.50
2022-10-22T10:36:59.447Z,9.43
2022-10-22T10:39:40.507Z,6.65
2022-10-22T10:42:18.912Z,5.68
2022-10-22T10:45:02.154Z,7.35
2022-10-22T10:47:46.090Z,5.65
2022-10-22T10:50:25.573Z,6.72
2022-10-22T10:53:04.733Z,9.70
2022-10-22T10:55:37.916Z,7.45
2022-10-22T10:58:16.920Z,6.30
2022-10-22T11:00:54.276Z,4.93
2022-10-22T11:03:59.740Z,11.85
2022-10-22T11:06:31.480Z,6.97
2022-10-22T11:09:04.057Z,5.00
2022-10-22T11:11:38.660Z,6.68
2022-10-22T11:14:15.199Z,6.65
2022-10-22T11:16:48.703Z,7.30
2022-10-22T11:19:22.807Z,5.95
2022-10-22T11:22:05.137Z,7.28
2022-10-22T11:24:41.442Z,5.82
2022-10-22T11:27:19.656Z,5.03
2022-10-22T11:29:53.427Z,9.10
2022-10-22T11:32:23.648Z,6.25
2022-10-22T11:37:27.318Z,8.13
2022-10-22T11:39:59.741Z,5.28
2022-10-22T11:42:35.280Z,7.78
2022-10-22T11:45:05.668Z,9.40
2022-10-22T11:47:36.739Z,5.38
2022-10-22T11:50:20.363Z,10.18
2022-10-22T11:53:04.301Z,8.48
2022-10-22T11:55:45.957Z,9.18
2022-10-22T11:58:33.244Z,5.50
2022-10-22T12:01:22.561Z,8.48
2022-10-22T12:03:52.856Z,16.55
2022-10-22T12:06:24.361Z,11.30
2022-10-22T12:08:59.702Z,7.88
2022-10-22T12:11:36.199Z,9.70
2022-10-22T12:14:18.853Z,7.28
2022-10-22T12:16:57.719Z,7.55
2022-10-22T12:19:30.036Z,6.75
2022-10-22T12:22:01.026Z,12.63
2022-10-22T12:24:35.350Z,11.38
2022-10-22T12:27:03.588Z,9.52
2022-10-22T12:29:33.881Z,12.38
2022-10-22T12:32:04.841Z,14.02
2022-10-22T12:34:32.667Z,6.85
2022-10-22T12:37:00.514Z,5.80
2022-10-22T12:39:29.064Z,5.53
2022-10-22T12:41:58.291Z,6.45
2022-10-22T12:44:26.247Z,7.22
2022-10-22T12:46:56.974Z,5.43
2022-10-22T12:49:35.412Z,6.32
2022-10-22T12:52:07.685Z,4.90
2022-10-22T12:54:38.792Z,8.95
2022-10-22T12:57:13.812Z,4.25
2022-10-22T12:59:47.280Z,4.55
2022-10-22T13:02:22.646Z,6.25
2022-10-22T13:05:17.348Z,5.53
2022-10-22T13:07:49.090Z,4.55
2022-10-22T13:10:21.142Z,9.68
2022-10-22T13:12:57.072Z,8.40
2022-10-22T13:15:37.999Z,6.85
2022-10-22T13:18:18.389Z,6.63
2022-10-22T13:20:57.107Z,9.65
2022-10-22T13:23:26.646Z,8.27
2022-10-22T13:26:00.182Z,9.70
2022-10-22T13:28:30.163Z,8.55
2022-10-22T13:31:00.456Z,8.60
2022-10-22T13:35:58.429Z,8.60
2022-10-22T13:38:27.730Z,5.15
2022-10-22T13:40:56.679Z,7.60
2022-10-22T13:43:25.334Z,9.18
2022-10-22T13:45:58.539Z,4.53
2022-10-22T13:48:29.100Z,7.68
2022-10-22T13:50:57.061Z,5.20
2022-10-22T13:53:27.983Z,4.15
2022-10-22T13:55:56.264Z,7.43
2022-10-22T13:58:25.753Z,4.45
2022-10-22T14:00:58.139Z,4.75
2022-10-22T14:03:29.436Z,7.22
2022-10-22T14:05:58.256Z,10.80
2022-10-22T14:08:28.069Z,5.55
2022-10-22T14:10:56.570Z,5.63
2022-10-22T14:13:24.542Z,5.82
2022-10-22T14:15:53.568Z,3.33
2022-10-22T14:18:29.108Z,5.82
2022-10-22T14:20:59.894Z,4.50
2022-10-22T14:23:29.692Z,5.00
2022-10-22T14:25:58.069Z,3.75
2022-10-22T14:28:26.377Z,5.47
2022-10-22T14:30:55.687Z,5.18
2022-10-22T14:33:30.586Z,4.88
2022-10-22T14:36:00.184Z,9.38
2022-10-22T14:38:28.832Z,6.63
2022-10-22T14:40:57.294Z,4.07
2022-10-22T14:43:27.266Z,5.45
2022-10-22T14:45:55.890Z,6.85
2022-10-22T14:48:25.809Z,9.02
2022-10-22T14:50:53.619Z,4.07
2022-10-22T14:53:21.770Z,5.18
2022-10-22T14:55:51.527Z,4.80
2022-10-22T14:58:19.674Z,6.05
2022-10-22T15:00:47.558Z,3.67
2022-10-22T15:03:15.784Z,5.80
2022-10-22T15:05:45.457Z,5.82
2022-10-22T15:08:14.535Z,3.60
2022-10-22T15:10:42.765Z,3.00
2022-10-22T15:13:10.730Z,5.20
2022-10-22T15:15:41.057Z,4.72
2022-10-22T15:18:09.176Z,6.10
2022-10-22T15:20:37.165Z,6.07
2022-10-22T15:23:06.444Z,4.07
2022-10-22T15:25:34.444Z,6.47
2022-10-22T15:28:09.653Z,5.35
2022-10-22T15:30:38.147Z,5.35
2022-10-22T15:33:06.435Z,4.35
2022-10-22T15:35:34.546Z,4.38
2022-10-22T15:38:02.619Z,7.70
2022-10-22T15:40:31.866Z,5.57
2022-10-22T15:42:59.838Z,4.97
2022-10-22T15:45:27.799Z,8.77
2022-10-22T15:47:55.636Z,5.95
2022-10-22T15:50:23.608Z,9.43
2022-10-22T15:52:51.507Z,6.55
2022-10-22T15:55:19.637Z,5.65
2022-10-22T15:57:54.683Z,7.03
2022-10-22T16:00:25.031Z,4.72
2022-10-22T16:02:54.897Z,5.63
2022-10-22T16:05:22.830Z,4.78
2022-10-22T16:07:51.495Z,5.32
2022-10-22T16:10:19.456Z,4.43
2022-10-22T16:12:51.669Z,3.03
2022-10-22T16:15:19.751Z,6.63
2022-10-22T16:17:47.644Z,6.63
2022-10-22T16:20:15.625Z,4.18
2022-10-22T16:22:43.686Z,3.00
2022-10-22T16:25:11.749Z,4.13
2022-10-22T16:27:39.566Z,4.18
2022-10-22T16:30:09.504Z,2.95
2022-10-22T16:32:37.453Z,4.00
2022-10-22T16:35:05.957Z,3.53
2022-10-22T16:37:33.885Z,4.05
2022-10-22T16:40:04.519Z,3.35
2022-10-22T16:42:36.208Z,5.68
2022-10-22T16:45:04.534Z,3.53
2022-10-22T16:47:33.848Z,3.78
2022-10-22T16:50:01.675Z,5.00
2022-10-22T16:52:29.530Z,4.55
2022-10-22T16:54:58.153Z,4.15
2022-10-22T16:57:25.994Z,5.93
2022-10-22T16:59:54.298Z,3.92
2022-10-22T17:02:22.175Z,3.88
2022-10-22T17:04:51.503Z,5.03
2022-10-22T17:07:19.515Z,3.53
2022-10-22T17:09:47.552Z,4.68
2022-10-22T17:12:16.160Z,2.42
2022-10-22T17:14:44.009Z,5.78
2022-10-22T17:17:12.003Z,5.78
2022-10-22T17:19:40.053Z,3.60
2022-10-22T17:22:09.359Z,3.38
2022-10-22T17:24:38.815Z,7.13
2022-10-22T17:27:06.700Z,7.43
2022-10-22T17:29:37.552Z,8.80
2022-10-22T17:32:05.849Z,6.10
2022-10-22T17:34:33.943Z,8.07
2022-10-22T17:37:01.763Z,9.35
2022-10-22T17:39:31.085Z,9.43
2022-10-22T17:41:58.955Z,8.27
2022-10-22T17:44:26.949Z,8.00
2022-10-22T17:46:54.816Z,8.80
2022-10-22T17:49:22.645Z,7.47
2022-10-22T17:51:50.672Z,9.30
2022-10-22T17:54:18.519Z,8.95
2022-10-22T17:56:47.871Z,8.13
2022-10-22T17:59:17.856Z,22.33
2022-10-22T18:01:47.965Z,16.83
2022-10-22T18:04:18.038Z,12.15
2022-10-22T18:06:47.290Z,21.00
2022-10-22T18:09:18.721Z,18.02
2022-10-22T18:11:49.458Z,14.27
2022-10-22T18:16:45.787Z,11.02
2022-10-22T18:19:16.116Z,12.88
2022-10-22T18:24:11.854Z,12.57
2022-10-22T18:26:39.709Z,15.02
2022-10-22T18:29:08.985Z,14.90
2022-10-22T18:31:36.829Z,18.00
2022-10-22T18:34:04.683Z,19.42
2022-10-22T18:36:32.702Z,11.95
2022-10-22T18:39:01.837Z,17.55
2022-10-22T18:41:31.662Z,18.98
2022-10-22T18:44:01.542Z,19.45
2022-10-22T18:46:34.658Z,15.05
2022-10-22T18:49:02.903Z,16.35
2022-10-22T18:51:31.625Z,16.00
2022-10-22T18:54:05.764Z,20.75
2022-10-22T18:56:40.992Z,16.55
2022-10-22T18:59:16.305Z,17.13
2022-10-22T19:01:45.742Z,20.20
2022-10-22T19:04:14.184Z,14.13
2022-10-22T19:06:45.545Z,17.30
2022-10-22T19:09:14.965Z,22.60
2022-10-22T19:11:43.512Z,18.42
2022-10-22T19:14:11.598Z,19.13
2022-10-22T19:16:39.523Z,16.92
2022-10-22T19:19:09.159Z,15.82
2022-10-22T19:21:38.122Z,15.05
2022-10-22T19:24:06.807Z,13.75
2022-10-22T19:26:34.920Z,14.02
2022-10-22T19:29:03.620Z,13.32
2022-10-22T19:31:31.671Z,13.07
2022-10-22T19:34:00.075Z,13.15
2022-10-22T19:36:30.167Z,13.13
2022-10-22T19:38:58.765Z,16.10
2022-10-22T19:41:28.442Z,14.65
2022-10-22T19:43:57.703Z,10.20
2022-10-22T19:46:27.108Z,32.75
2022-10-22T19:48:57.121Z,25.43
2022-10-22T19:51:29.689Z,17.85
2022-10-22T19:54:00.398Z,10.98
2022-10-22T19:56:29.345Z,8.75
2022-10-22T19:58:57.542Z,10.05
2022-10-22T20:01:26.008Z,11.65
2022-10-22T20:03:54.311Z,13.18
2022-10-22T20:06:22.874Z,15.60
2022-10-22T20:08:53.777Z,14.45
2022-10-22T20:11:28.063Z,9.07
2022-10-22T20:13:57.182Z,15.15
2022-10-22T20:16:28.562Z,8.93
2022-10-22T20:18:59.925Z,21.15
2022-10-22T20:21:28.227Z,14.80
2022-10-22T20:23:57.281Z,12.15
2022-10-22T20:26:28.875Z,12.82
2022-10-22T20:28:57.537Z,8.93
2022-10-22T20:31:27.817Z,8.13
2022-10-22T20:36:25.000Z,12.98
2022-10-22T20:38:53.292Z,14.60
2022-10-22T20:41:23.288Z,14.43
2022-10-22T20:43:53.328Z,16.85
2022-10-22T20:46:23.929Z,13.18
2022-10-22T20:48:52.811Z,8.70
2022-10-22T20:51:20.891Z,6.78
2022-10-22T20:53:49.156Z,7.75
2022-10-22T20:56:17.908Z,7.55
2022-10-22T20:58:48.504Z,10.63
2022-10-22T21:01:21.843Z,9.95
2022-10-22T21:03:49.984Z,8.65
2022-10-22T21:06:20.938Z,8.20
2022-10-22T21:08:49.092Z,13.75
2022-10-22T21:11:17.340Z,11.10
2022-10-22T21:13:45.265Z,13.38
2022-10-22T21:16:14.921Z,13.25
2022-10-22T21:18:44.216Z,10.30
2022-10-22T21:21:12.823Z,15.20
2022-10-22T21:23:41.209Z,12.95
2022-10-22T21:26:09.060Z,7.47
2022-10-22T21:28:38.013Z,10.02
2022-10-22T21:31:07.630Z,11.60
2022-10-22T21:33:36.829Z,11.73
2022-10-22T21:36:08.914Z,8.48
2022-10-22T21:38:38.007Z,8.25
2022-10-22T21:41:06.832Z,9.07
2022-10-22T21:43:35.044Z,11.35
2022-10-22T21:46:08.187Z,11.02
2022-10-22T21:48:37.123Z,9.48
2022-10-22T21:51:11.954Z,11.27
2022-10-22T21:53:40.685Z,12.35
2022-10-22T21:56:09.860Z,8.73
2022-10-22T21:58:38.162Z,11.45
2022-10-22T22:01:06.258Z,7.53
2022-10-22T22:03:34.174Z,9.60
2022-10-22T22:06:03.583Z,8.60
2022-10-22T22:08:33.691Z,13.40
2022-10-22T22:11:03.082Z,13.48
2022-10-22T22:13:31.015Z,11.03
2022-10-22T22:16:02.581Z,11.75
2022-10-22T22:18:30.860Z,9.30
2022-10-22T22:20:59.885Z,9.15
2022-10-22T22:23:27.866Z,10.30
2022-10-22T22:26:01.124Z,8.88
2022-10-22T22:28:30.383Z,8.80
2022-10-22T22:30:58.649Z,11.15
2022-10-22T22:33:26.829Z,6.90
2022-10-22T22:35:58.773Z,8.55
2022-10-22T22:38:26.835Z,13.95
2022-10-22T22:40:54.643Z,6.95
2022-10-22T22:43:23.877Z,7.82
2022-10-22T22:45:59.986Z,8.32
2022-10-22T22:48:28.208Z,7.70
2022-10-22T22:50:56.071Z,7.35
2022-10-22T22:53:23.931Z,7.65
2022-10-22T22:55:51.761Z,8.57
2022-10-22T22:58:19.733Z,8.75
2022-10-22T23:00:48.915Z,6.95
2022-10-22T23:03:16.739Z,9.02
2022-10-22T23:05:44.600Z,8.93
2022-10-22T23:08:12.763Z,8.57
2022-10-22T23:10:40.800Z,10.10
2022-10-22T23:13:08.816Z,9.15
2022-10-22T23:15:40.370Z,14.13
2022-10-22T23:18:09.644Z,11.05
2022-10-22T23:20:38.796Z,11.88
2022-10-22T23:23:06.702Z,19.58
2022-10-22T23:25:34.642Z,13.32
2022-10-22T23:28:02.510Z,14.20
2022-10-22T23:30:30.358Z,10.85
2022-10-22T23:32:58.135Z,12.70
2022-10-22T23:35:27.387Z,9.63
2022-10-22T23:37:55.228Z,17.70
2022-10-22T23:40:23.060Z,11.57
2022-10-22T23:42:50.875Z,9.82
2022-10-22T23:45:18.970Z,9.13
2022-10-22T23:47:46.736Z,10.77
2022-10-22T23:50:14.725Z,11.27
2022-10-22T23:52:44.359Z,9.02
2022-10-22T23:55:12.686Z,8.38
2022-10-22T23:57:40.652Z,7.95
